Time;durP1;ratioP1;P1;durP2;ratioP2;P2;SDS_P1;SDS_P2;PMS_P1;PMS_P2;Temp;Humidity;BMP_temperature;BMP_pressure;BME280_temperature;BME280_humidity;BME280_pressure;Samples;Min_cycle;Max_cycle;Signal;HPM_P1;HPM_P2
2021/12/11 00:00:54;;;;;;;;;;;20.30;45.80;;;;;;6237222;28;20783;-39
2021/12/11 00:03:57;;;;;;;;;;;21.00;46.20;;;;;;6237763;28;19920;-39
2021/12/11 00:07:00;;;;;;;;;;;20.20;45.90;;;;;;6237894;28;20039;-39
2021/12/11 00:10:06;;;;;;;;;;;20.20;45.90;;;;;;6224543;28;20602;-40
2021/12/11 00:13:09;;;;;;;;;;;20.30;45.80;;;;;;6224614;28;19935;-38
2021/12/11 00:16:12;;;;;;;;;;;20.20;45.80;;;;;;6243938;28;20753;-39
2021/12/11 00:19:15;;;;;;;;;;;20.30;45.90;;;;;;6222496;28;19931;-38
2021/12/11 00:22:19;;;;;;;;;;;20.30;45.90;;;;;;6238711;28;19924;-40
2021/12/11 00:25:21;;;;;;;;;;;20.00;45.90;;;;;;6239425;28;19924;-38
2021/12/11 00:28:22;;;;;;;;;;;20.70;46.00;;;;;;6244126;28;19928;-39
2021/12/11 00:31:25;;;;;;;;;;;20.50;45.70;;;;;;6236223;28;19951;-38
2021/12/11 00:34:27;;;;;;;;;;;21.20;46.40;;;;;;6234570;28;19929;-38
2021/12/11 00:37:28;;;;;;;;;;;20.30;46.00;;;;;;6238612;28;20011;-38
2021/12/11 00:40:31;;;;;;;;;;;20.20;46.10;;;;;;6222115;28;19920;-41
2021/12/11 00:43:35;;;;;;;;;;;20.70;46.30;;;;;;6239280;28;20059;-38
2021/12/11 00:46:36;;;;;;;;;;;20.30;46.10;;;;;;6238387;28;19940;-38
2021/12/11 00:49:44;;;;;;;;;;;20.80;46.40;;;;;;6218480;28;19928;-39
2021/12/11 00:52:46;;;;;;;;;;;20.50;46.10;;;;;;6236038;28;19924;-38
2021/12/11 00:55:51;;;;;;;;;;;20.20;45.90;;;;;;6237978;28;20485;-40
2021/12/11 00:58:53;;;;;;;;;;;20.30;46.10;;;;;;6233574;28;19928;-40
2021/12/11 01:01:55;;;;;;;;;;;20.30;46.10;;;;;;6217196;28;19929;-40
2021/12/11 01:04:57;;;;;;;;;;;20.90;46.40;;;;;;6233075;28;20125;-40
2021/12/11 01:07:59;;;;;;;;;;;20.10;46.10;;;;;;6232552;28;20014;-39
2021/12/11 01:11:05;;;;;;;;;;;20.10;46.00;;;;;;6237933;28;19935;-39
2021/12/11 01:14:15;;;;;;;;;;;20.30;45.90;;;;;;6231235;28;20410;-39
2021/12/11 01:17:21;;;;;;;;;;;20.20;46.00;;;;;;6229557;28;19928;-40
2021/12/11 01:20:23;;;;;;;;;;;20.20;46.00;;;;;;6218744;28;19934;-39
2021/12/11 01:23:35;;;;;;;;;;;20.10;46.00;;;;;;6212866;28;19966;-40
2021/12/11 01:26:38;;;;;;;;;;;20.50;46.20;;;;;;6228330;28;19974;-40
2021/12/11 01:29:40;;;;;;;;;;;20.10;46.00;;;;;;6214397;28;20780;-39
2021/12/11 01:32:42;;;;;;;;;;;20.40;46.20;;;;;;6227947;28;19930;-42
2021/12/11 01:35:43;;;;;;;;;;;20.50;46.10;;;;;;6219934;28;19924;-39
2021/12/11 01:38:45;;;;;;;;;;;20.50;46.30;;;;;;6230046;28;19971;-39
2021/12/11 01:41:48;;;;;;;;;;;20.70;45.70;;;;;;6235291;28;19924;-39
2021/12/11 01:44:50;;;;;;;;;;;20.50;46.30;;;;;;6235956;28;19928;-41
2021/12/11 01:47:51;;;;;;;;;;;20.40;46.20;;;;;;6238406;28;19953;-39
2021/12/11 01:50:54;;;;;;;;;;;20.30;46.10;;;;;;6221226;28;19935;-39
2021/12/11 01:53:59;;;;;;;;;;;20.00;45.90;;;;;;6240194;28;20285;-39
2021/12/11 01:57:08;;;;;;;;;;;20.00;45.80;;;;;;6237914;28;19920;-39
2021/12/11 02:00:12;;;;;;;;;;;20.10;46.00;;;;;;6236415;28;19924;-39
2021/12/11 02:03:15;;;;;;;;;;;20.10;45.90;;;;;;6216481;28;20068;-41
2021/12/11 02:06:17;;;;;;;;;;;20.90;46.40;;;;;;6233169;28;20038;-40
2021/12/11 02:09:20;;;;;;;;;;;20.40;46.00;;;;;;6232632;28;19924;-40
2021/12/11 02:12:25;;;;;;;;;;;20.10;46.00;;;;;;6218580;28;19935;-40
2021/12/11 02:15:33;;;;;;;;;;;20.20;46.10;;;;;;6234313;28;20637;-39
2021/12/11 02:18:35;;;;;;;;;;;20.00;45.80;;;;;;6220110;28;19962;-39
2021/12/11 02:21:42;;;;;;;;;;;20.10;45.90;;;;;;6237631;28;20813;-39
2021/12/11 02:24:45;;;;;;;;;;;20.00;45.80;;;;;;6229258;28;20256;-39
2021/12/11 02:27:49;;;;;;;;;;;20.50;46.20;;;;;;6227990;28;20566;-39
2021/12/11 02:30:53;;;;;;;;;;;20.40;46.10;;;;;;6227316;28;20166;-39
2021/12/11 02:33:56;;;;;;;;;;;20.10;46.00;;;;;;6204116;28;20378;-39
2021/12/11 02:37:03;;;;;;;;;;;20.50;46.20;;;;;;6208921;28;20224;-39
2021/12/11 02:40:08;;;;;;;;;;;20.30;46.10;;;;;;6230516;28;20083;-39
2021/12/11 02:43:14;;;;;;;;;;;20.00;45.90;;;;;;6211626;28;19939;-39
2021/12/11 02:46:17;;;;;;;;;;;20.10;46.10;;;;;;6230052;28;20693;-39
2021/12/11 02:49:19;;;;;;;;;;;20.40;46.10;;;;;;6211322;28;20261;-39
2021/12/11 02:52:25;;;;;;;;;;;20.10;46.00;;;;;;6209375;28;19951;-40
2021/12/11 02:55:30;;;;;;;;;;;20.20;46.10;;;;;;6226022;28;20204;-39
2021/12/11 02:58:34;;;;;;;;;;;20.50;46.20;;;;;;6227664;28;19935;-39
2021/12/11 03:01:37;;;;;;;;;;;20.00;46.00;;;;;;6207627;28;20686;-40
2021/12/11 03:04:45;;;;;;;;;;;20.20;46.00;;;;;;6226586;28;19932;-39
2021/12/11 03:07:51;;;;;;;;;;;20.10;46.00;;;;;;6211209;28;19928;-40
2021/12/11 03:10:54;;;;;;;;;;;20.40;46.30;;;;;;6228610;28;20968;-39
2021/12/11 03:13:55;;;;;;;;;;;20.30;46.10;;;;;;6225936;28;20126;-38
2021/12/11 03:16:58;;;;;;;;;;;20.20;46.20;;;;;;6231886;28;19959;-39
2021/12/11 03:19:59;;;;;;;;;;;20.30;46.10;;;;;;6233450;28;20179;-39
2021/12/11 03:23:01;;;;;;;;;;;20.10;46.10;;;;;;6232803;28;20426;-39
2021/12/11 03:26:03;;;;;;;;;;;20.40;46.20;;;;;;6229038;28;20200;-40
2021/12/11 03:29:05;;;;;;;;;;;19.90;45.80;;;;;;6228246;28;20996;-39
2021/12/11 03:32:08;;;;;;;;;;;20.30;46.20;;;;;;6225437;28;20243;-39
2021/12/11 03:35:10;;;;;;;;;;;20.50;46.20;;;;;;6227125;28;19925;-39
2021/12/11 03:38:12;;;;;;;;;;;20.20;46.00;;;;;;6221605;28;20521;-39
2021/12/11 03:41:13;;;;;;;;;;;20.20;46.10;;;;;;6228951;28;20870;-38
2021/12/11 03:44:15;;;;;;;;;;;20.10;46.10;;;;;;6229482;28;20419;-39
2021/12/11 03:47:18;;;;;;;;;;;20.10;46.00;;;;;;6210466;28;20064;-39
2021/12/11 03:50:21;;;;;;;;;;;20.20;46.20;;;;;;6209944;28;20285;-39
2021/12/11 03:53:23;;;;;;;;;;;20.50;46.20;;;;;;6229423;28;20437;-40
2021/12/11 03:56:24;;;;;;;;;;;20.00;46.10;;;;;;6229580;28;20611;-38
2021/12/11 03:59:26;;;;;;;;;;;20.10;46.10;;;;;;6227390;28;19934;-39
2021/12/11 04:02:31;;;;;;;;;;;20.20;46.10;;;;;;6222263;28;20730;-39
2021/12/11 04:05:35;;;;;;;;;;;20.10;46.10;;;;;;6208834;28;20217;-40
2021/12/11 04:08:40;;;;;;;;;;;20.30;46.00;;;;;;6205617;28;20247;-39
2021/12/11 04:11:43;;;;;;;;;;;20.10;46.10;;;;;;6229871;28;19959;-39
2021/12/11 04:14:46;;;;;;;;;;;20.10;46.10;;;;;;6230990;28;20051;-39
2021/12/11 04:17:47;;;;;;;;;;;20.30;46.20;;;;;;6239539;28;20359;-40
2021/12/11 04:20:49;;;;;;;;;;;20.00;46.00;;;;;;6223829;28;19928;-39
2021/12/11 04:23:52;;;;;;;;;;;20.00;46.00;;;;;;6229476;28;19934;-39
2021/12/11 04:26:54;;;;;;;;;;;20.40;46.30;;;;;;6228146;28;20303;-39
2021/12/11 04:29:56;;;;;;;;;;;19.90;46.00;;;;;;6222417;28;20028;-39
2021/12/11 04:32:58;;;;;;;;;;;20.00;46.20;;;;;;6228921;28;20378;-39
2021/12/11 04:36:00;;;;;;;;;;;20.10;46.10;;;;;;6229624;28;20353;-39
2021/12/11 04:39:03;;;;;;;;;;;20.90;46.50;;;;;;6208438;28;20729;-39
2021/12/11 04:42:14;;;;;;;;;;;20.30;46.20;;;;;;6226630;28;19928;-39
2021/12/11 04:45:17;;;;;;;;;;;20.50;45.60;;;;;;6224725;28;19960;-39
2021/12/11 04:48:26;;;;;;;;;;;20.10;46.10;;;;;;6230940;28;21368;-39
2021/12/11 04:51:36;;;;;;;;;;;20.40;46.30;;;;;;6226071;28;20811;-39
2021/12/11 04:54:50;;;;;;;;;;;20.00;46.00;;;;;;6228014;28;21212;-39
2021/12/11 05:01:15;;;;;;;;;;;20.40;45.70;;;;;;6218792;28;20352;-39
2021/12/11 05:07:39;;;;;;;;;;;20.10;46.30;;;;;;6225953;28;20859;-39
2021/12/11 05:10:50;;;;;;;;;;;20.70;46.60;;;;;;6227514;28;20018;-39
2021/12/11 05:13:52;;;;;;;;;;;20.10;46.20;;;;;;6222554;28;20115;-39
2021/12/11 05:16:53;;;;;;;;;;;19.90;46.20;;;;;;6224116;28;20424;-39
2021/12/11 05:19:54;;;;;;;;;;;20.20;46.30;;;;;;6226760;28;20421;-39
2021/12/11 05:22:56;;;;;;;;;;;20.20;46.30;;;;;;6226247;28;20399;-39
2021/12/11 05:25:58;;;;;;;;;;;20.40;46.40;;;;;;6208613;28;20178;-39
2021/12/11 05:28:59;;;;;;;;;;;20.00;46.20;;;;;;6205732;28;19997;-39
2021/12/11 05:32:02;;;;;;;;;;;19.90;46.00;;;;;;6225032;28;20726;-39
2021/12/11 05:35:04;;;;;;;;;;;19.90;45.90;;;;;;6227946;28;20457;-39
2021/12/11 05:38:07;;;;;;;;;;;20.20;46.30;;;;;;6224402;28;19928;-39
2021/12/11 05:41:10;;;;;;;;;;;20.80;46.60;;;;;;6210279;28;19924;-39
2021/12/11 05:44:12;;;;;;;;;;;19.90;46.10;;;;;;6205311;28;20455;-39
2021/12/11 05:47:13;;;;;;;;;;;19.90;46.10;;;;;;6212049;28;20047;-39
2021/12/11 05:50:17;;;;;;;;;;;20.20;46.30;;;;;;6223632;28;20805;-39
2021/12/11 05:53:20;;;;;;;;;;;20.00;46.10;;;;;;6224637;28;20157;-39
2021/12/11 05:56:22;;;;;;;;;;;20.00;46.10;;;;;;6212047;28;19924;-39
2021/12/11 05:59:24;;;;;;;;;;;20.40;46.40;;;;;;6209108;28;20231;-39
2021/12/11 06:02:26;;;;;;;;;;;20.10;46.20;;;;;;6227643;28;20502;-39
2021/12/11 06:05:28;;;;;;;;;;;20.00;46.00;;;;;;6210026;28;19924;-39
2021/12/11 06:08:31;;;;;;;;;;;20.30;46.30;;;;;;6206238;28;20541;-39
2021/12/11 06:11:33;;;;;;;;;;;20.40;46.10;;;;;;6227857;28;20417;-39
2021/12/11 06:14:35;;;;;;;;;;;20.30;46.30;;;;;;6227090;28;19924;-40
2021/12/11 06:17:37;;;;;;;;;;;19.90;46.10;;;;;;6226332;28;19928;-39
2021/12/11 06:20:38;;;;;;;;;;;20.40;46.20;;;;;;6230045;28;20051;-39
2021/12/11 06:23:43;;;;;;;;;;;20.00;46.30;;;;;;6229803;28;19924;-39
2021/12/11 06:26:46;;;;;;;;;;;20.20;46.20;;;;;;6229637;28;19994;-39
2021/12/11 06:29:47;;;;;;;;;;;19.90;46.20;;;;;;6228418;28;19951;-39
2021/12/11 06:32:50;;;;;;;;;;;20.10;46.20;;;;;;6226387;28;19932;-39
2021/12/11 06:35:53;;;;;;;;;;;20.60;46.40;;;;;;6208521;28;20299;-39
2021/12/11 06:38:56;;;;;;;;;;;20.00;46.10;;;;;;6228313;28;20522;-39
2021/12/11 06:42:00;;;;;;;;;;;20.50;46.40;;;;;;6227389;28;19929;-39
2021/12/11 06:45:02;;;;;;;;;;;19.80;46.10;;;;;;6228204;28;19983;-39
2021/12/11 06:48:04;;;;;;;;;;;20.40;46.40;;;;;;6209142;28;19928;-39
2021/12/11 06:51:06;;;;;;;;;;;20.00;46.10;;;;;;6231814;28;19924;-40
2021/12/11 06:54:09;;;;;;;;;;;19.80;46.10;;;;;;6241041;28;20282;-41
2021/12/11 06:57:12;;;;;;;;;;;20.00;46.10;;;;;;6222471;28;20059;-40
2021/12/11 07:00:14;;;;;;;;;;;20.30;46.40;;;;;;6234815;28;20992;-41
2021/12/11 07:03:15;;;;;;;;;;;19.90;46.10;;;;;;6238469;28;19929;-40
2021/12/11 07:06:17;;;;;;;;;;;19.90;46.30;;;;;;6232692;28;19946;-39
2021/12/11 07:09:20;;;;;;;;;;;19.60;46.00;;;;;;6220862;28;20854;-42
2021/12/11 07:12:21;;;;;;;;;;;20.30;46.30;;;;;;6241577;28;20051;-39
2021/12/11 07:15:23;;;;;;;;;;;19.90;46.20;;;;;;6225686;28;20399;-39
2021/12/11 07:18:25;;;;;;;;;;;19.90;46.10;;;;;;6228417;28;20500;-39
2021/12/11 07:21:26;;;;;;;;;;;20.00;46.20;;;;;;6211564;28;19998;-39
2021/12/11 07:24:32;;;;;;;;;;;19.80;46.20;;;;;;6224600;28;20034;-39
2021/12/11 07:27:34;;;;;;;;;;;19.80;46.10;;;;;;6208305;28;20466;-40
2021/12/11 07:30:37;;;;;;;;;;;20.30;46.30;;;;;;6225035;28;20274;-39
2021/12/11 07:33:38;;;;;;;;;;;20.00;46.10;;;;;;6226046;28;20217;-40
2021/12/11 07:36:41;;;;;;;;;;;19.80;46.20;;;;;;6198325;28;19972;-39
2021/12/11 07:39:43;;;;;;;;;;;20.40;46.30;;;;;;6214089;28;19971;-39
2021/12/11 07:42:45;;;;;;;;;;;20.70;46.50;;;;;;6223421;28;20331;-38
2021/12/11 07:45:47;;;;;;;;;;;20.30;46.30;;;;;;6207591;28;20034;-39
2021/12/11 07:48:49;;;;;;;;;;;20.40;45.70;;;;;;6222888;28;20696;-39
2021/12/11 07:51:51;;;;;;;;;;;20.30;46.30;;;;;;6232247;28;19930;-38
2021/12/11 07:54:52;;;;;;;;;;;20.00;46.20;;;;;;6236212;28;19928;-39
2021/12/11 07:57:56;;;;;;;;;;;19.90;46.20;;;;;;6237310;28;20043;-39
2021/12/11 08:01:05;;;;;;;;;;;20.60;46.60;;;;;;6238967;28;19931;-39
2021/12/11 08:04:06;;;;;;;;;;;20.20;46.30;;;;;;6252371;28;19928;-39
2021/12/11 08:07:07;;;;;;;;;;;20.00;46.30;;;;;;6225310;28;20397;-39
2021/12/11 08:10:11;;;;;;;;;;;20.20;46.50;;;;;;6209263;28;19924;-41
2021/12/11 08:13:13;;;;;;;;;;;20.50;46.20;;;;;;6205788;28;20039;-42
2021/12/11 08:16:18;;;;;;;;;;;20.30;46.50;;;;;;6221716;28;20605;-39
2021/12/11 08:19:22;;;;;;;;;;;19.70;46.00;;;;;;6211295;28;19971;-39
2021/12/11 08:22:24;;;;;;;;;;;19.90;46.20;;;;;;6227156;28;20690;-39
2021/12/11 08:25:26;;;;;;;;;;;20.30;46.30;;;;;;6225132;28;19931;-42
2021/12/11 08:28:29;;;;;;;;;;;20.10;46.20;;;;;;6209561;28;20632;-41
2021/12/11 08:31:31;;;;;;;;;;;19.90;46.10;;;;;;6224464;28;20317;-38
2021/12/11 08:34:33;;;;;;;;;;;20.20;46.30;;;;;;6225691;28;20324;-40
2021/12/11 08:37:35;;;;;;;;;;;19.80;46.00;;;;;;6223466;28;20390;-40
2021/12/11 08:40:39;;;;;;;;;;;20.30;46.30;;;;;;6211568;28;20217;-40
2021/12/11 08:43:42;;;;;;;;;;;20.50;46.40;;;;;;6226793;28;20328;-39
2021/12/11 08:46:46;;;;;;;;;;;20.10;46.20;;;;;;6223827;28;19925;-39
2021/12/11 08:49:48;;;;;;;;;;;19.80;46.00;;;;;;6205957;28;19935;-38
2021/12/11 08:52:51;;;;;;;;;;;20.40;46.30;;;;;;6221583;28;20305;-39
2021/12/11 08:55:54;;;;;;;;;;;20.00;46.20;;;;;;6222380;28;19987;-39
2021/12/11 08:58:56;;;;;;;;;;;19.80;46.00;;;;;;6222764;28;20602;-40
2021/12/11 09:02:01;;;;;;;;;;;19.90;46.30;;;;;;6220139;28;19925;-39
2021/12/11 09:05:06;;;;;;;;;;;19.80;46.00;;;;;;6223750;28;20323;-39
2021/12/11 09:08:12;;;;;;;;;;;20.00;46.10;;;;;;6201714;28;20585;-39
2021/12/11 09:11:15;;;;;;;;;;;19.70;46.00;;;;;;6217826;28;19931;-39
2021/12/11 09:14:22;;;;;;;;;;;20.40;46.20;;;;;;6205120;28;19928;-39
2021/12/11 09:17:26;;;;;;;;;;;19.90;46.20;;;;;;6222093;28;20417;-39
2021/12/11 09:20:33;;;;;;;;;;;19.80;45.80;;;;;;6224347;28;19942;-40
2021/12/11 09:23:38;;;;;;;;;;;20.00;45.90;;;;;;6211789;28;20053;-39
2021/12/11 09:26:41;;;;;;;;;;;20.10;46.00;;;;;;6226378;28;20210;-39
2021/12/11 09:29:45;;;;;;;;;;;19.90;45.60;;;;;;6210989;28;19925;-39
2021/12/11 09:32:48;;;;;;;;;;;20.00;45.70;;;;;;6225224;28;20043;-39
2021/12/11 09:35:52;;;;;;;;;;;20.10;45.70;;;;;;6228958;28;20281;-39
2021/12/11 09:38:58;;;;;;;;;;;20.50;45.70;;;;;;6231917;28;20046;-40
2021/12/11 09:41:59;;;;;;;;;;;20.50;45.60;;;;;;6240645;28;20039;-40
2021/12/11 09:45:06;;;;;;;;;;;20.80;45.70;;;;;;6224178;28;21132;-40
2021/12/11 09:48:09;;;;;;;;;;;20.50;45.50;;;;;;6218821;28;20953;-40
2021/12/11 09:51:14;;;;;;;;;;;20.20;45.20;;;;;;6226252;28;20239;-39
2021/12/11 09:54:18;;;;;;;;;;;20.40;45.30;;;;;;6212401;28;20223;-39
2021/12/11 09:57:21;;;;;;;;;;;20.40;45.20;;;;;;6213020;28;20771;-40
2021/12/11 10:00:25;;;;;;;;;;;20.70;45.20;;;;;;6223500;28;20229;-40
2021/12/11 10:03:29;;;;;;;;;;;20.50;45.10;;;;;;6227582;28;20004;-39
2021/12/11 10:06:42;;;;;;;;;;;20.40;45.00;;;;;;6229028;28;19928;-39
2021/12/11 10:09:47;;;;;;;;;;;20.40;45.00;;;;;;6210388;28;20018;-40
2021/12/11 10:12:50;;;;;;;;;;;20.80;45.00;;;;;;6227329;28;20019;-38
2021/12/11 10:15:52;;;;;;;;;;;20.80;45.00;;;;;;6229660;28;19924;-39
2021/12/11 10:18:53;;;;;;;;;;;20.80;45.00;;;;;;6230069;28;20021;-39
2021/12/11 10:21:57;;;;;;;;;;;21.00;45.20;;;;;;6222612;28;20473;-40
2021/12/11 10:24:59;;;;;;;;;;;20.50;44.70;;;;;;6224167;28;19930;-39
2021/12/11 10:28:01;;;;;;;;;;;20.50;44.70;;;;;;6226849;28;20510;-39
2021/12/11 10:31:04;;;;;;;;;;;20.90;44.90;;;;;;6229446;28;20245;-39
2021/12/11 10:34:08;;;;;;;;;;;20.60;44.70;;;;;;6237657;28;19927;-39
2021/12/11 10:37:10;;;;;;;;;;;21.10;44.90;;;;;;6223110;28;21028;-41
2021/12/11 10:40:14;;;;;;;;;;;20.70;44.70;;;;;;6237664;28;19927;-41
2021/12/11 10:43:18;;;;;;;;;;;20.90;44.70;;;;;;6219737;28;20075;-40
2021/12/11 10:46:21;;;;;;;;;;;20.70;44.40;;;;;;6238998;28;19927;-41
2021/12/11 10:49:23;;;;;;;;;;;21.10;45.00;;;;;;6239974;28;19935;-39
2021/12/11 10:52:26;;;;;;;;;;;21.20;44.80;;;;;;6221429;28;20779;-39
2021/12/11 10:55:28;;;;;;;;;;;20.80;44.60;;;;;;6240118;28;19924;-40
2021/12/11 10:58:31;;;;;;;;;;;21.10;44.70;;;;;;6234725;28;19971;-39
2021/12/11 11:01:35;;;;;;;;;;;20.90;44.50;;;;;;6225269;28;20025;-39
2021/12/11 11:04:39;;;;;;;;;;;20.80;44.60;;;;;;6209386;28;20443;-42
2021/12/11 11:07:42;;;;;;;;;;;21.00;44.70;;;;;;6234376;28;19928;-39
2021/12/11 11:10:47;;;;;;;;;;;20.80;44.40;;;;;;6222478;28;19928;-39
2021/12/11 11:13:49;;;;;;;;;;;21.30;44.70;;;;;;6226020;28;20035;-39
2021/12/11 11:16:54;;;;;;;;;;;21.80;45.00;;;;;;6225693;28;19935;-39
2021/12/11 11:19:56;;;;;;;;;;;20.90;44.60;;;;;;6208938;28;19930;-39
2021/12/11 11:22:58;;;;;;;;;;;20.90;44.40;;;;;;6208630;28;20242;-40
2021/12/11 11:26:02;;;;;;;;;;;20.90;44.40;;;;;;6225665;28;20270;-39
2021/12/11 11:29:05;;;;;;;;;;;21.00;44.40;;;;;;6209309;28;20793;-39
2021/12/11 11:32:09;;;;;;;;;;;21.10;44.40;;;;;;6206287;28;19928;-39
2021/12/11 11:35:13;;;;;;;;;;;21.20;44.50;;;;;;6225121;28;20078;-39
2021/12/11 11:38:21;;;;;;;;;;;20.80;44.30;;;;;;6205393;28;20010;-40
2021/12/11 11:41:24;;;;;;;;;;;21.30;44.60;;;;;;6189282;28;20030;-39
2021/12/11 11:44:27;;;;;;;;;;;21.20;44.40;;;;;;6195572;28;19928;-39
2021/12/11 11:47:29;;;;;;;;;;;21.40;44.10;;;;;;6218226;28;20401;-39
2021/12/11 11:50:33;;;;;;;;;;;20.90;44.30;;;;;;6194933;28;20325;-39
2021/12/11 11:53:34;;;;;;;;;;;21.40;44.50;;;;;;6212825;28;19932;-40
2021/12/11 11:56:38;;;;;;;;;;;21.10;44.40;;;;;;6217780;28;20004;-39
2021/12/11 11:59:39;;;;;;;;;;;20.90;44.10;;;;;;6226105;28;19924;-39
2021/12/11 12:02:41;;;;;;;;;;;21.30;44.40;;;;;;6220845;28;20383;-39
2021/12/11 12:05:44;;;;;;;;;;;21.20;44.50;;;;;;6228195;28;20255;-39
2021/12/11 12:08:45;;;;;;;;;;;21.10;44.20;;;;;;6207552;28;19924;-39
2021/12/11 12:11:47;;;;;;;;;;;21.00;44.20;;;;;;6206464;28;20173;-39
2021/12/11 12:14:50;;;;;;;;;;;21.30;44.40;;;;;;6223233;28;19924;-40
2021/12/11 12:17:52;;;;;;;;;;;22.10;44.80;;;;;;6225600;28;20046;-40
2021/12/11 12:20:55;;;;;;;;;;;21.20;44.20;;;;;;6228900;28;20133;-39
2021/12/11 12:23:56;;;;;;;;;;;21.50;44.30;;;;;;6210478;28;19959;-39
2021/12/11 12:26:58;;;;;;;;;;;21.60;44.40;;;;;;6227975;28;20047;-39
2021/12/11 12:30:01;;;;;;;;;;;21.50;44.30;;;;;;6224625;28;20293;-39
2021/12/11 12:33:03;;;;;;;;;;;21.30;44.20;;;;;;6225082;28;19928;-39
2021/12/11 12:36:05;;;;;;;;;;;21.30;44.20;;;;;;6225666;28;20089;-39
2021/12/11 12:39:07;;;;;;;;;;;21.10;44.00;;;;;;6219193;28;20464;-39
2021/12/11 12:42:17;;;;;;;;;;;21.20;44.10;;;;;;6204474;28;20001;-39
2021/12/11 12:45:21;;;;;;;;;;;21.40;44.20;;;;;;6219516;28;20141;-39
2021/12/11 12:48:23;;;;;;;;;;;22.20;44.60;;;;;;6222484;28;20352;-40
2021/12/11 12:51:24;;;;;;;;;;;21.70;44.40;;;;;;6203498;28;20549;-39
2021/12/11 12:54:26;;;;;;;;;;;21.40;44.20;;;;;;6225930;28;20027;-39
2021/12/11 12:57:28;;;;;;;;;;;21.60;44.50;;;;;;6223989;28;19924;-39
2021/12/11 13:00:32;;;;;;;;;;;22.10;44.50;;;;;;6197031;28;20790;-39
2021/12/11 13:03:35;;;;;;;;;;;21.80;44.40;;;;;;6219671;28;20013;-39
2021/12/11 13:06:41;;;;;;;;;;;21.10;44.00;;;;;;6206097;28;20437;-39
2021/12/11 13:09:44;;;;;;;;;;;21.40;44.80;;;;;;6213841;28;20471;-39
2021/12/11 13:12:46;;;;;;;;;;;21.40;44.20;;;;;;6202419;28;20779;-39
2021/12/11 13:15:50;;;;;;;;;;;21.30;44.00;;;;;;6214688;28;20413;-39
2021/12/11 13:18:54;;;;;;;;;;;21.80;44.20;;;;;;6220301;28;20464;-40
2021/12/11 13:22:00;;;;;;;;;;;21.80;44.40;;;;;;6223100;28;20097;-39
2021/12/11 13:25:04;;;;;;;;;;;21.50;44.20;;;;;;6223988;28;20094;-39
2021/12/11 13:28:06;;;;;;;;;;;21.80;44.40;;;;;;6221315;28;20339;-40
2021/12/11 13:31:09;;;;;;;;;;;21.40;44.20;;;;;;6203025;28;19975;-40
2021/12/11 13:34:12;;;;;;;;;;;21.40;44.00;;;;;;6222377;28;19929;-39
2021/12/11 13:37:14;;;;;;;;;;;21.40;44.10;;;;;;6224476;28;19924;-39
2021/12/11 13:40:17;;;;;;;;;;;21.80;44.30;;;;;;6208503;28;20886;-39
2021/12/11 13:43:18;;;;;;;;;;;21.60;44.10;;;;;;6222767;28;20453;-39
2021/12/11 13:46:20;;;;;;;;;;;21.80;44.40;;;;;;6201290;28;19924;-39
2021/12/11 13:49:22;;;;;;;;;;;21.50;44.10;;;;;;6218188;28;19924;-40
2021/12/11 13:52:24;;;;;;;;;;;21.80;44.30;;;;;;6219128;28;21117;-39
2021/12/11 13:55:30;;;;;;;;;;;22.00;44.30;;;;;;6224367;28;20148;-39
2021/12/11 13:58:34;;;;;;;;;;;21.90;44.40;;;;;;6204105;28;19937;-39
2021/12/11 14:01:36;;;;;;;;;;;21.40;44.20;;;;;;6220903;28;20511;-39
2021/12/11 14:04:39;;;;;;;;;;;21.80;44.20;;;;;;6214977;28;19989;-39
2021/12/11 14:07:41;;;;;;;;;;;22.10;44.50;;;;;;6228463;28;20387;-41
2021/12/11 14:10:44;;;;;;;;;;;21.60;44.10;;;;;;6206347;28;20581;-39
2021/12/11 14:13:45;;;;;;;;;;;21.70;44.20;;;;;;6207785;28;19971;-39
2021/12/11 14:16:48;;;;;;;;;;;21.80;44.30;;;;;;6233827;28;20428;-39
2021/12/11 14:19:50;;;;;;;;;;;21.90;44.20;;;;;;6212449;28;19924;-39
2021/12/11 14:22:51;;;;;;;;;;;21.60;44.20;;;;;;6226849;28;20011;-39
2021/12/11 14:25:53;;;;;;;;;;;21.70;44.30;;;;;;6229768;28;19928;-39
2021/12/11 14:28:56;;;;;;;;;;;21.80;44.20;;;;;;6231282;28;20490;-39
2021/12/11 14:31:58;;;;;;;;;;;21.60;44.20;;;;;;6230215;28;19928;-39
2021/12/11 14:35:00;;;;;;;;;;;21.90;44.90;;;;;;6227504;28;20287;-39
2021/12/11 14:38:05;;;;;;;;;;;21.40;44.10;;;;;;6226552;28;19924;-39
2021/12/11 14:41:06;;;;;;;;;;;22.00;44.30;;;;;;6229637;28;20482;-39
2021/12/11 14:44:10;;;;;;;;;;;22.00;44.40;;;;;;6240920;28;20084;-39
2021/12/11 14:47:13;;;;;;;;;;;22.00;44.20;;;;;;6240680;28;19928;-39
2021/12/11 14:50:17;;;;;;;;;;;22.10;44.20;;;;;;6244118;28;19927;-39
2021/12/11 14:53:21;;;;;;;;;;;21.60;44.20;;;;;;6214537;28;20891;-39
2021/12/11 14:56:27;;;;;;;;;;;22.50;44.60;;;;;;6209057;28;19974;-40
2021/12/11 14:59:31;;;;;;;;;;;21.60;44.10;;;;;;6206148;28;20452;-39
2021/12/11 15:02:34;;;;;;;;;;;21.60;44.10;;;;;;6226538;28;19924;-39
2021/12/11 15:05:41;;;;;;;;;;;21.50;44.10;;;;;;6205657;28;19951;-39
2021/12/11 15:08:44;;;;;;;;;;;21.60;44.20;;;;;;6217913;28;19932;-40
2021/12/11 15:11:48;;;;;;;;;;;21.50;44.00;;;;;;6228440;28;19928;-39
2021/12/11 15:14:50;;;;;;;;;;;21.60;44.10;;;;;;6207822;28;20208;-39
2021/12/11 15:17:52;;;;;;;;;;;21.70;44.20;;;;;;6226717;28;19928;-39
2021/12/11 15:20:57;;;;;;;;;;;22.20;44.30;;;;;;6228887;28;19929;-39
2021/12/11 15:24:00;;;;;;;;;;;21.60;44.30;;;;;;6211746;28;20010;-39
2021/12/11 15:27:04;;;;;;;;;;;22.00;44.50;;;;;;6227051;28;20123;-39
2021/12/11 15:30:07;;;;;;;;;;;22.00;44.40;;;;;;6221079;28;20051;-40
2021/12/11 15:33:08;;;;;;;;;;;21.60;44.20;;;;;;6220684;28;19989;-39
2021/12/11 15:36:11;;;;;;;;;;;21.50;44.20;;;;;;6225574;28;19928;-39
2021/12/11 15:39:17;;;;;;;;;;;22.10;44.50;;;;;;6223775;28;20058;-39
2021/12/11 15:42:19;;;;;;;;;;;22.10;44.50;;;;;;6243074;28;19929;-39
2021/12/11 15:45:22;;;;;;;;;;;21.60;44.20;;;;;;6235307;28;19924;-39
2021/12/11 15:48:24;;;;;;;;;;;21.70;44.40;;;;;;6211300;28;20287;-40
2021/12/11 15:51:27;;;;;;;;;;;22.30;44.70;;;;;;6226034;28;20439;-39
2021/12/11 15:54:29;;;;;;;;;;;22.00;44.60;;;;;;6228331;28;19924;-39
2021/12/11 15:57:30;;;;;;;;;;;21.60;44.40;;;;;;6227600;28;20009;-39
2021/12/11 16:00:33;;;;;;;;;;;21.90;44.60;;;;;;6223239;28;20082;-39
2021/12/11 16:03:36;;;;;;;;;;;21.90;44.50;;;;;;6221568;28;19939;-40
2021/12/11 16:06:40;;;;;;;;;;;22.00;44.60;;;;;;6201462;28;20466;-39
2021/12/11 16:09:42;;;;;;;;;;;22.00;44.80;;;;;;6222410;28;19987;-39
2021/12/11 16:12:45;;;;;;;;;;;21.60;44.50;;;;;;6207743;28;20387;-39
2021/12/11 16:15:47;;;;;;;;;;;21.80;44.50;;;;;;6226245;28;19934;-39
2021/12/11 16:18:49;;;;;;;;;;;21.60;44.40;;;;;;6228528;28;19972;-39
2021/12/11 16:21:51;;;;;;;;;;;22.10;44.70;;;;;;6227865;28;19928;-40
2021/12/11 16:24:56;;;;;;;;;;;22.00;44.60;;;;;;6222191;28;20366;-39
2021/12/11 16:27:59;;;;;;;;;;;21.40;44.40;;;;;;6224152;28;20280;-40
2021/12/11 16:31:01;;;;;;;;;;;21.60;44.60;;;;;;6224436;28;20030;-39
2021/12/11 16:34:05;;;;;;;;;;;21.40;44.50;;;;;;6224112;28;20373;-39
2021/12/11 16:37:16;;;;;;;;;;;21.70;44.70;;;;;;6225614;28;19935;-39
2021/12/11 16:40:19;;;;;;;;;;;22.00;44.90;;;;;;6219006;28;20015;-39
2021/12/11 16:43:23;;;;;;;;;;;21.60;44.60;;;;;;6203283;28;20404;-40
2021/12/11 16:46:25;;;;;;;;;;;22.00;44.90;;;;;;6223040;28;21196;-39
2021/12/11 16:49:28;;;;;;;;;;;21.60;44.60;;;;;;6208349;28;19928;-39
2021/12/11 16:52:30;;;;;;;;;;;21.70;44.70;;;;;;6222924;28;20260;-39
2021/12/11 16:55:32;;;;;;;;;;;22.10;44.50;;;;;;6220432;28;19928;-39
2021/12/11 16:58:35;;;;;;;;;;;22.00;44.90;;;;;;6220938;28;19936;-39
2021/12/11 17:01:38;;;;;;;;;;;21.60;44.80;;;;;;6216290;28;20023;-39
2021/12/11 17:04:42;;;;;;;;;;;22.00;44.90;;;;;;6221196;28;20597;-39
2021/12/11 17:07:44;;;;;;;;;;;21.60;44.70;;;;;;6223804;28;19985;-39
2021/12/11 17:10:48;;;;;;;;;;;21.80;44.90;;;;;;6216657;28;20058;-39
2021/12/11 17:13:51;;;;;;;;;;;21.50;44.70;;;;;;6207187;28;20921;-39
2021/12/11 17:16:58;;;;;;;;;;;21.60;44.70;;;;;;6218947;28;19929;-39
2021/12/11 17:20:00;;;;;;;;;;;21.60;44.90;;;;;;6216573;28;19967;-40
2021/12/11 17:23:03;;;;;;;;;;;21.70;45.00;;;;;;6203198;28;20036;-39
2021/12/11 17:26:05;;;;;;;;;;;22.10;45.30;;;;;;6216358;28;19924;-39
2021/12/11 17:29:08;;;;;;;;;;;22.00;45.00;;;;;;6212045;28;20013;-40
2021/12/11 17:32:10;;;;;;;;;;;21.90;45.10;;;;;;6215158;28;20383;-40
2021/12/11 17:35:12;;;;;;;;;;;21.40;44.90;;;;;;6236973;28;19935;-39
2021/12/11 17:38:14;;;;;;;;;;;21.50;45.00;;;;;;6217399;28;19928;-39
2021/12/11 17:41:16;;;;;;;;;;;21.40;45.20;;;;;;6224156;28;19929;-39
2021/12/11 17:44:18;;;;;;;;;;;21.40;45.10;;;;;;6202724;28;20342;-39
2021/12/11 17:47:20;;;;;;;;;;;21.60;45.10;;;;;;6222496;28;20509;-39
2021/12/11 17:50:22;;;;;;;;;;;21.40;45.30;;;;;;6229545;28;19928;-37